Terminal Aerodrome Forecast
Issued by NWS Twin Cities, MN

Home | Current Version | Previous Version | Graphics & Text | Print | Product List | Glossary On
Versions: 1 2 3 4 5 6 7 8 9 10 11 12 13 14 15 16 17 18 19 20 21 22 23 24 25 26
000
FTUS43 KMPX 292300
TAFMSP
TAF
KMSP 292331Z 3000/0106 06008KT P6SM SCT030
     FM300900 09007KT P6SM SCT012
     FM301600 11010KT P6SM SCT030 SCT250
     FM302000 12012G19KT P6SM SCT025 BKN050
     FM010200 13011KT 6SM -RA BR SCT020 BKN040=

USA.gov is the U.S. government's official web portal to all federal, state and local government web resources and services.